createdAt,value
2018-07-07T00:00:53.754Z,17.07
2018-07-07T00:01:53.615Z,17.11
2018-07-07T00:02:53.601Z,17.03
2018-07-07T00:03:53.635Z,17.00
2018-07-07T00:04:53.575Z,16.97
2018-07-07T00:05:53.560Z,16.94
2018-07-07T00:06:53.544Z,16.85
2018-07-07T00:07:53.530Z,16.85
2018-07-07T00:08:53.516Z,16.85
2018-07-07T00:09:53.506Z,16.82
2018-07-07T00:10:53.488Z,16.86
2018-07-07T00:11:53.475Z,16.94
2018-07-07T00:12:53.459Z,16.98
2018-07-07T00:13:53.445Z,16.86
2018-07-07T00:14:53.440Z,16.88
2018-07-07T00:15:53.415Z,16.86
2018-07-07T00:16:53.407Z,16.78
2018-07-07T00:17:53.388Z,16.79
2018-07-07T00:18:53.375Z,16.89
2018-07-07T00:19:53.365Z,16.89
2018-07-07T00:20:53.346Z,16.91
2018-07-07T00:21:53.335Z,16.82
2018-07-07T00:22:53.373Z,16.82
2018-07-07T00:23:53.303Z,16.86
2018-07-07T00:24:53.295Z,16.71
2018-07-07T00:25:53.276Z,16.67
2018-07-07T00:26:53.264Z,16.67
2018-07-07T00:27:53.248Z,16.70
2018-07-07T00:28:53.235Z,16.56
2018-07-07T00:29:53.224Z,16.50
2018-07-07T00:30:53.213Z,16.57
2018-07-07T00:31:53.190Z,16.57
2018-07-07T00:32:53.174Z,16.50
2018-07-07T00:33:53.184Z,16.42
2018-07-07T00:34:53.149Z,16.49
2018-07-07T00:35:53.135Z,16.56
2018-07-07T00:36:53.126Z,16.48
2018-07-07T00:37:53.109Z,16.45
2018-07-07T00:38:53.107Z,16.39
2018-07-07T00:39:53.079Z,16.21
2018-07-07T00:40:53.063Z,16.23
2018-07-07T00:41:53.050Z,16.17
2018-07-07T00:42:53.035Z,16.14
2018-07-07T00:43:53.022Z,16.14
2018-07-07T00:44:53.006Z,16.07
2018-07-07T00:45:52.993Z,16.11
2018-07-07T00:46:52.985Z,16.14
2018-07-07T00:47:52.966Z,16.11
2018-07-07T00:48:52.956Z,16.23
2018-07-07T00:49:52.935Z,16.28
2018-07-07T00:50:52.920Z,16.20
2018-07-07T00:51:52.906Z,16.34
2018-07-07T00:52:52.896Z,16.35
2018-07-07T00:53:52.881Z,16.30
2018-07-07T00:54:52.867Z,16.14
2018-07-07T00:55:52.852Z,16.25
2018-07-07T00:56:52.836Z,16.23
2018-07-07T00:57:52.830Z,16.31
2018-07-07T00:58:52.811Z,16.27
2018-07-07T00:59:52.804Z,16.28
2018-07-07T01:00:52.781Z,16.28
2018-07-07T01:01:52.767Z,16.30
2018-07-07T01:02:52.756Z,16.28
2018-07-07T01:03:52.740Z,16.24
2018-07-07T01:04:52.726Z,16.35
2018-07-07T01:05:52.761Z,16.48
2018-07-07T01:06:52.704Z,16.43
2018-07-07T01:07:52.679Z,16.41
2018-07-07T01:08:52.669Z,16.43
2018-07-07T01:09:52.652Z,16.41
2018-07-07T01:10:52.638Z,16.28
2018-07-07T01:11:52.625Z,16.07
2018-07-07T01:12:52.613Z,16.09
2018-07-07T01:13:52.598Z,16.12
2018-07-07T01:14:52.588Z,16.08
2018-07-07T01:15:52.566Z,16.07
2018-07-07T01:16:52.555Z,16.07
2018-07-07T01:17:52.542Z,16.12
2018-07-07T01:18:52.528Z,16.08
2018-07-07T01:19:52.510Z,16.04
2018-07-07T01:20:52.497Z,16.09
2018-07-07T01:21:52.582Z,16.15
2018-07-07T01:22:52.474Z,16.15
2018-07-07T01:23:52.451Z,16.20
2018-07-07T01:24:52.438Z,16.15
2018-07-07T01:25:52.423Z,16.25
2018-07-07T01:26:52.409Z,16.34
2018-07-07T01:27:52.395Z,16.41
2018-07-07T01:28:52.382Z,16.45
2018-07-07T01:29:52.366Z,16.24
2018-07-07T01:30:52.356Z,16.25
2018-07-07T01:31:52.341Z,16.09
2018-07-07T01:32:52.325Z,16.23
2018-07-07T01:33:52.307Z,16.27
2018-07-07T01:34:52.297Z,16.30
2018-07-07T01:35:52.285Z,16.27
2018-07-07T01:36:52.269Z,16.24
2018-07-07T01:37:52.269Z,16.27
2018-07-07T01:38:52.242Z,16.33
2018-07-07T01:39:52.225Z,16.23
2018-07-07T01:40:52.210Z,16.25
2018-07-07T01:41:52.198Z,16.30
2018-07-07T01:42:52.186Z,16.28
2018-07-07T01:43:52.166Z,16.23
2018-07-07T01:44:52.156Z,16.20
2018-07-07T01:45:52.263Z,16.17
2018-07-07T01:46:52.126Z,16.04
2018-07-07T01:47:52.110Z,16.01
2018-07-07T01:48:52.096Z,15.94
2018-07-07T01:49:52.082Z,15.84
2018-07-07T01:50:52.065Z,15.75
2018-07-07T01:51:52.054Z,15.72
2018-07-07T01:52:52.035Z,15.72
2018-07-07T01:53:52.024Z,15.78
2018-07-07T01:54:52.006Z,15.94
2018-07-07T01:55:52.004Z,15.94
2018-07-07T01:56:51.978Z,16.04
2018-07-07T01:57:51.963Z,16.05
2018-07-07T01:58:51.951Z,16.09
2018-07-07T01:59:51.935Z,16.23
2018-07-07T02:00:51.923Z,16.21
2018-07-07T02:01:51.998Z,16.14
2018-07-07T02:02:51.899Z,16.11
2018-07-07T02:03:51.883Z,16.21
2018-07-07T02:04:51.963Z,16.17
2018-07-07T02:05:51.856Z,16.14
2018-07-07T02:06:51.835Z,16.12
2018-07-07T02:07:51.820Z,16.05
2018-07-07T02:08:51.813Z,16.07
2018-07-07T02:09:51.788Z,16.11
2018-07-07T02:10:51.775Z,16.09
2018-07-07T02:11:51.764Z,16.02
2018-07-07T02:12:51.745Z,16.15
2018-07-07T02:13:51.733Z,16.20
2018-07-07T02:14:51.717Z,16.28
2018-07-07T02:15:51.702Z,16.27
2018-07-07T02:16:51.689Z,16.28
2018-07-07T02:17:51.676Z,16.31
2018-07-07T02:18:51.702Z,16.27
2018-07-07T02:19:51.646Z,16.30
2018-07-07T02:20:51.645Z,16.23
2018-07-07T02:21:51.623Z,16.02
2018-07-07T02:22:51.606Z,16.12
2018-07-07T02:23:51.636Z,16.24
2018-07-07T02:24:51.576Z,15.96
2018-07-07T02:25:51.560Z,15.96
2018-07-07T02:26:51.544Z,15.94
2018-07-07T02:27:51.528Z,16.04
2018-07-07T02:28:51.518Z,16.14
2018-07-07T02:29:51.504Z,15.90
2018-07-07T02:30:51.487Z,15.94
2018-07-07T02:31:51.521Z,15.97
2018-07-07T02:32:51.459Z,16.08
2018-07-07T02:33:51.446Z,16.09
2018-07-07T02:34:51.428Z,16.14
2018-07-07T02:35:51.414Z,15.84
2018-07-07T02:36:51.398Z,15.93
2018-07-07T02:37:51.386Z,15.84
2018-07-07T02:38:51.370Z,15.82
2018-07-07T02:39:51.356Z,15.84
2018-07-07T02:40:51.346Z,15.84
2018-07-07T02:41:51.333Z,15.89
2018-07-07T02:42:51.315Z,15.86
2018-07-07T02:43:51.307Z,15.71
2018-07-07T02:44:51.289Z,15.69
2018-07-07T02:45:51.267Z,15.59
2018-07-07T02:46:51.257Z,15.51
2018-07-07T02:47:51.266Z,15.50
2018-07-07T02:48:51.223Z,15.54
2018-07-07T02:49:51.210Z,15.53
2018-07-07T02:50:51.198Z,15.49
2018-07-07T02:51:51.178Z,15.60
2018-07-07T02:52:51.164Z,15.51
2018-07-07T02:53:51.164Z,15.51
2018-07-07T02:54:51.135Z,15.65
2018-07-07T02:55:51.126Z,15.68
2018-07-07T02:56:51.109Z,15.82
2018-07-07T02:57:51.091Z,15.87
2018-07-07T02:58:51.079Z,15.82
2018-07-07T02:59:51.065Z,15.90
2018-07-07T03:00:51.049Z,15.87
2018-07-07T03:01:51.036Z,15.96
2018-07-07T03:02:51.020Z,16.05
2018-07-07T03:03:51.009Z,16.01
2018-07-07T03:04:50.992Z,16.02
2018-07-07T03:05:50.976Z,16.02
2018-07-07T03:06:51.115Z,16.04
2018-07-07T03:07:50.950Z,15.93
2018-07-07T03:08:50.938Z,15.82
2018-07-07T03:09:50.918Z,15.71
2018-07-07T03:10:50.902Z,15.57
2018-07-07T03:11:50.890Z,15.68
2018-07-07T03:12:50.880Z,15.59
2018-07-07T03:13:50.882Z,15.50
2018-07-07T03:14:50.850Z,15.53
2018-07-07T03:15:50.833Z,15.44
2018-07-07T03:16:50.822Z,15.49
2018-07-07T03:17:50.801Z,15.43
2018-07-07T03:18:50.786Z,15.43
2018-07-07T03:19:50.777Z,15.44
2018-07-07T03:20:50.759Z,15.44
2018-07-07T03:21:50.755Z,15.56
2018-07-07T03:22:50.727Z,15.60
2018-07-07T03:23:50.713Z,15.69
2018-07-07T03:24:50.698Z,15.60
2018-07-07T03:25:50.689Z,15.60
2018-07-07T03:26:50.667Z,15.59
2018-07-07T03:27:50.657Z,15.67
2018-07-07T03:28:50.638Z,15.59
2018-07-07T03:29:50.625Z,15.53
2018-07-07T03:30:50.714Z,15.57
2018-07-07T03:31:50.597Z,15.50
2018-07-07T03:32:50.583Z,15.38
2018-07-07T03:33:50.613Z,15.36
2018-07-07T03:34:50.551Z,15.39
2018-07-07T03:35:50.533Z,15.27
2018-07-07T03:36:50.523Z,15.21
2018-07-07T03:37:50.507Z,15.27
2018-07-07T03:38:50.490Z,15.23
2018-07-07T03:39:50.474Z,15.19
2018-07-07T03:40:50.466Z,15.21
2018-07-07T03:41:50.448Z,15.28
2018-07-07T03:42:50.434Z,15.31
2018-07-07T03:43:50.419Z,15.14
2018-07-07T03:44:50.455Z,15.01
2018-07-07T03:45:50.388Z,14.96
2018-07-07T03:46:50.475Z,14.81
2018-07-07T03:47:50.358Z,14.91
2018-07-07T03:48:50.344Z,14.73
2018-07-07T03:49:50.332Z,14.65
2018-07-07T03:50:50.318Z,14.77
2018-07-07T03:51:50.305Z,14.61
2018-07-07T03:52:50.286Z,14.78
2018-07-07T03:53:50.270Z,14.84
2018-07-07T03:54:50.258Z,14.84
2018-07-07T03:55:50.242Z,14.78
2018-07-07T03:56:50.226Z,14.92
2018-07-07T03:57:50.218Z,14.92
2018-07-07T03:58:50.223Z,14.95
2018-07-07T03:59:50.182Z,14.86
2018-07-07T04:00:50.168Z,14.88
2018-07-07T04:01:50.150Z,14.96
2018-07-07T04:02:50.143Z,15.02
2018-07-07T04:03:50.121Z,15.02
2018-07-07T04:04:50.109Z,15.07
2018-07-07T04:05:50.097Z,15.13
2018-07-07T04:06:50.076Z,15.27
2018-07-07T04:07:50.063Z,15.31
2018-07-07T04:08:50.045Z,15.31
2018-07-07T04:09:50.032Z,15.41
2018-07-07T04:10:50.016Z,15.41
2018-07-07T04:11:50.000Z,15.43
2018-07-07T04:12:49.986Z,15.50
2018-07-07T04:13:49.983Z,15.44
2018-07-07T04:14:49.956Z,15.50
2018-07-07T04:15:49.942Z,15.47
2018-07-07T04:16:50.027Z,15.51
2018-07-07T04:17:49.913Z,15.64
2018-07-07T04:18:49.895Z,15.50
2018-07-07T04:19:49.880Z,15.62
2018-07-07T04:20:49.866Z,15.62
2018-07-07T04:21:49.856Z,15.65
2018-07-07T04:22:49.840Z,15.65
2018-07-07T04:23:49.834Z,15.67
2018-07-07T04:24:49.811Z,15.71
2018-07-07T04:25:49.796Z,15.72
2018-07-07T04:26:49.778Z,15.69
2018-07-07T04:27:49.763Z,15.69
2018-07-07T04:28:49.747Z,15.71
2018-07-07T04:29:49.731Z,15.68
2018-07-07T04:30:49.718Z,15.78
2018-07-07T04:31:49.701Z,15.71
2018-07-07T04:32:49.688Z,15.80
2018-07-07T04:33:49.676Z,15.71
2018-07-07T04:34:49.656Z,15.72
2018-07-07T04:35:49.693Z,15.74
2018-07-07T04:36:49.628Z,15.60
2018-07-07T04:37:49.615Z,15.67
2018-07-07T04:38:49.604Z,15.65
2018-07-07T04:39:49.580Z,15.60
2018-07-07T04:40:49.567Z,15.62
2018-07-07T04:41:49.556Z,15.56
2018-07-07T04:42:49.536Z,15.51
2018-07-07T04:43:49.526Z,15.57
2018-07-07T04:44:49.508Z,15.64
2018-07-07T04:45:49.531Z,15.60
2018-07-07T04:46:49.477Z,15.68
2018-07-07T04:47:49.462Z,15.65
2018-07-07T04:48:49.445Z,15.65
2018-07-07T04:49:49.431Z,15.72
2018-07-07T04:50:49.416Z,15.68
2018-07-07T04:51:49.520Z,15.67
2018-07-07T04:52:49.386Z,15.68
2018-07-07T04:53:49.369Z,15.68
2018-07-07T04:54:49.356Z,15.75
2018-07-07T04:55:49.343Z,15.72
2018-07-07T04:56:49.326Z,15.75
2018-07-07T04:57:49.316Z,15.83
2018-07-07T04:58:49.295Z,15.86
2018-07-07T04:59:49.432Z,15.84
2018-07-07T05:00:49.266Z,15.89
2018-07-07T05:01:49.255Z,15.93
2018-07-07T05:02:49.242Z,15.78
2018-07-07T05:03:49.225Z,15.87
2018-07-07T05:04:49.208Z,15.90
2018-07-07T05:05:49.198Z,16.01
2018-07-07T05:06:49.179Z,15.96
2018-07-07T05:07:49.161Z,15.92
2018-07-07T05:08:49.143Z,15.92
2018-07-07T05:09:49.130Z,15.94
2018-07-07T05:10:49.131Z,15.84
2018-07-07T05:11:49.106Z,15.86
2018-07-07T05:12:49.090Z,15.96
2018-07-07T05:13:49.076Z,15.94
2018-07-07T05:14:49.054Z,16.07
2018-07-07T05:15:49.047Z,16.04
2018-07-07T05:16:49.028Z,16.14
2018-07-07T05:17:49.009Z,16.02
2018-07-07T05:18:49.046Z,16.09
2018-07-07T05:19:48.978Z,16.28
2018-07-07T05:20:48.962Z,16.20
2018-07-07T05:21:48.954Z,16.20
2018-07-07T05:22:48.935Z,16.20
2018-07-07T05:23:48.922Z,16.05
2018-07-07T05:24:48.907Z,16.15
2018-07-07T05:25:48.889Z,16.11
2018-07-07T05:26:48.875Z,16.11
2018-07-07T05:27:48.859Z,16.04
2018-07-07T05:28:48.843Z,16.05
2018-07-07T05:29:48.826Z,16.01
2018-07-07T05:30:48.813Z,16.11
2018-07-07T05:31:48.860Z,16.14
2018-07-07T05:32:48.786Z,16.15
2018-07-07T05:33:48.771Z,16.27
2018-07-07T05:34:48.756Z,16.28
2018-07-07T05:35:48.792Z,16.31
2018-07-07T05:36:48.724Z,16.30
2018-07-07T05:37:48.713Z,16.39
2018-07-07T05:38:48.702Z,16.42
2018-07-07T05:39:48.679Z,16.43
2018-07-07T05:40:48.663Z,16.48
2018-07-07T05:41:48.654Z,16.50
2018-07-07T05:42:48.635Z,16.45
2018-07-07T05:43:48.625Z,16.52
2018-07-07T05:44:48.605Z,16.41
2018-07-07T05:45:48.595Z,16.45
2018-07-07T05:46:48.578Z,16.58
2018-07-07T05:47:48.560Z,16.56
2018-07-07T05:48:48.541Z,16.49
2018-07-07T05:49:48.536Z,16.56
2018-07-07T05:50:48.518Z,16.63
2018-07-07T05:51:48.503Z,16.61
2018-07-07T05:52:48.483Z,16.57
2018-07-07T05:53:48.471Z,16.60
2018-07-07T05:54:48.455Z,16.64
2018-07-07T05:55:48.442Z,16.66
2018-07-07T05:56:48.426Z,16.63
2018-07-07T05:57:48.408Z,16.63
2018-07-07T05:58:48.394Z,16.64
2018-07-07T05:59:48.385Z,16.63
2018-07-07T06:00:48.367Z,16.66
2018-07-07T06:01:48.400Z,16.70
2018-07-07T06:02:48.338Z,16.64
2018-07-07T06:03:48.320Z,16.68
2018-07-07T06:04:48.304Z,16.68
2018-07-07T06:05:48.290Z,16.70
2018-07-07T06:06:48.274Z,16.66
2018-07-07T06:07:48.257Z,16.76
2018-07-07T06:08:48.243Z,16.82
2018-07-07T06:09:48.235Z,16.76
2018-07-07T06:10:48.215Z,16.78
2018-07-07T06:11:48.202Z,16.75
2018-07-07T06:12:48.182Z,16.73
2018-07-07T06:13:48.171Z,16.81
2018-07-07T06:14:48.154Z,16.88
2018-07-07T06:15:48.138Z,16.89
2018-07-07T06:16:48.125Z,16.91
2018-07-07T06:17:48.113Z,16.86
2018-07-07T06:18:48.096Z,17.00
2018-07-07T06:19:48.086Z,17.00
2018-07-07T06:20:48.124Z,16.98
2018-07-07T06:21:48.051Z,17.04
2018-07-07T06:22:48.052Z,17.03
2018-07-07T06:23:48.074Z,17.04
2018-07-07T06:24:48.036Z,17.00
2018-07-07T06:25:47.991Z,16.98
2018-07-07T06:26:48.069Z,16.97
2018-07-07T06:27:47.967Z,16.97
2018-07-07T06:28:47.948Z,17.01
2018-07-07T06:29:47.933Z,17.01
2018-07-07T06:30:47.919Z,16.98
2018-07-07T06:31:47.901Z,17.00
2018-07-07T06:32:47.885Z,17.03
2018-07-07T06:33:47.883Z,17.12
2018-07-07T06:34:47.872Z,17.21
2018-07-07T06:35:47.841Z,17.22
2018-07-07T06:36:47.830Z,17.23
2018-07-07T06:37:47.817Z,17.31
2018-07-07T06:38:47.800Z,17.33
2018-07-07T06:39:47.786Z,17.28
2018-07-07T06:40:47.771Z,17.40
2018-07-07T06:41:47.758Z,17.34
2018-07-07T06:42:47.748Z,17.40
2018-07-07T06:43:47.790Z,17.34
2018-07-07T06:44:47.719Z,17.51
2018-07-07T06:45:47.703Z,17.46
2018-07-07T06:46:47.682Z,17.70
2018-07-07T06:47:47.720Z,17.66
2018-07-07T06:48:47.646Z,17.74
2018-07-07T06:49:47.636Z,17.62
2018-07-07T06:50:47.626Z,17.63
2018-07-07T06:51:47.610Z,17.70
2018-07-07T06:52:47.595Z,17.52
2018-07-07T06:53:47.642Z,17.74
2018-07-07T06:54:47.559Z,17.70
2018-07-07T06:55:47.552Z,17.81
2018-07-07T06:56:47.536Z,17.92
2018-07-07T06:57:47.517Z,17.87
2018-07-07T06:58:47.505Z,17.95
2018-07-07T06:59:47.541Z,18.07
2018-07-07T07:00:47.480Z,17.99
2018-07-07T07:01:47.464Z,17.90
2018-07-07T07:02:47.448Z,17.92
2018-07-07T07:03:47.465Z,17.92
2018-07-07T07:04:47.417Z,17.95
2018-07-07T07:05:47.403Z,18.10
2018-07-07T07:06:47.389Z,18.10
2018-07-07T07:07:47.371Z,18.18
2018-07-07T07:08:47.371Z,18.25
2018-07-07T07:09:47.346Z,18.23
2018-07-07T07:10:47.335Z,18.15
2018-07-07T07:11:47.332Z,18.10
2018-07-07T07:12:47.301Z,18.14
2018-07-07T07:13:47.296Z,18.18
2018-07-07T07:14:47.274Z,18.15
2018-07-07T07:15:47.253Z,18.14
2018-07-07T07:16:47.243Z,18.23
2018-07-07T07:17:47.224Z,18.32
2018-07-07T07:18:47.215Z,18.39
2018-07-07T07:19:47.286Z,18.50
2018-07-07T07:20:47.186Z,18.45
2018-07-07T07:21:47.172Z,18.50
2018-07-07T07:22:47.259Z,18.51
2018-07-07T07:23:47.152Z,18.57
2018-07-07T07:24:47.175Z,18.52
2018-07-07T07:25:47.114Z,18.65
2018-07-07T07:26:47.100Z,18.76
2018-07-07T07:27:47.085Z,18.88
2018-07-07T07:28:47.076Z,19.00
2018-07-07T07:29:47.053Z,19.11
2018-07-07T07:30:47.041Z,19.18
2018-07-07T07:31:47.025Z,19.13
2018-07-07T07:32:47.010Z,19.22
2018-07-07T07:33:46.997Z,19.28
2018-07-07T07:34:46.985Z,19.32
2018-07-07T07:35:46.969Z,19.46
2018-07-07T07:36:46.972Z,19.43
2018-07-07T07:37:46.949Z,19.59
2018-07-07T07:38:46.933Z,19.58
2018-07-07T07:39:46.930Z,19.47
2018-07-07T07:40:46.904Z,19.39
2018-07-07T07:41:46.888Z,19.32
2018-07-07T07:42:46.875Z,19.41
2018-07-07T07:43:46.864Z,19.44
2018-07-07T07:44:46.851Z,19.48
2018-07-07T07:45:46.829Z,19.54
2018-07-07T07:46:46.833Z,19.56
2018-07-07T07:47:46.800Z,19.29
2018-07-07T07:48:46.789Z,19.21
2018-07-07T07:49:46.827Z,19.25
2018-07-07T07:50:46.760Z,19.43
2018-07-07T07:51:46.745Z,19.50
2018-07-07T07:52:46.760Z,19.55
2018-07-07T07:53:46.725Z,19.51
2018-07-07T07:54:46.714Z,19.58
2018-07-07T07:55:46.696Z,19.58
2018-07-07T07:56:46.685Z,19.63
2018-07-07T07:57:46.669Z,19.77
2018-07-07T07:58:46.656Z,19.77
2018-07-07T07:59:46.637Z,19.83
2018-07-07T08:00:46.625Z,19.86
2018-07-07T08:01:46.609Z,20.03
2018-07-07T08:02:46.695Z,20.13
2018-07-07T08:03:46.581Z,20.21
2018-07-07T08:04:46.627Z,20.14
2018-07-07T08:05:46.555Z,20.11
2018-07-07T08:06:46.542Z,20.13
2018-07-07T08:07:46.530Z,20.35
2018-07-07T08:08:46.519Z,20.52
2018-07-07T08:09:46.517Z,20.62
2018-07-07T08:10:46.489Z,20.64
2018-07-07T08:11:46.481Z,20.77
2018-07-07T08:12:46.475Z,20.84
2018-07-07T08:13:46.451Z,20.92
2018-07-07T08:14:46.446Z,20.82
2018-07-07T08:15:46.432Z,20.88
2018-07-07T08:16:46.415Z,20.92
2018-07-07T08:17:46.395Z,20.67
2018-07-07T08:18:46.383Z,20.74
2018-07-07T08:19:46.373Z,20.82
2018-07-07T08:20:46.356Z,20.74
2018-07-07T08:21:46.343Z,20.52
2018-07-07T08:22:46.334Z,20.32
2018-07-07T08:23:46.322Z,20.35
2018-07-07T08:24:46.301Z,20.21
2018-07-07T08:25:46.294Z,20.20
2018-07-07T08:26:46.330Z,20.28
2018-07-07T08:27:46.263Z,20.33
2018-07-07T08:28:46.251Z,20.52
2018-07-07T08:29:46.238Z,20.67
2018-07-07T08:30:46.226Z,20.82
2018-07-07T08:31:46.216Z,20.82
2018-07-07T08:32:46.211Z,20.97
2018-07-07T08:33:46.194Z,20.94
2018-07-07T08:34:46.178Z,21.07
2018-07-07T08:35:46.171Z,21.10
2018-07-07T08:36:46.151Z,21.25
2018-07-07T08:37:46.137Z,21.42
2018-07-07T08:38:46.125Z,21.34
2018-07-07T08:39:46.116Z,21.38
2018-07-07T08:40:46.097Z,21.17
2018-07-07T08:41:46.137Z,21.13
2018-07-07T08:42:46.080Z,21.24
2018-07-07T08:43:46.056Z,21.14
2018-07-07T08:44:46.046Z,21.14
2018-07-07T08:45:46.083Z,21.21
2018-07-07T08:46:46.030Z,21.24
2018-07-07T08:47:46.018Z,21.21
2018-07-07T08:48:45.997Z,21.47
2018-07-07T08:49:45.987Z,21.52
2018-07-07T08:50:45.970Z,21.67
2018-07-07T08:51:45.954Z,21.64
2018-07-07T08:52:45.943Z,21.44
2018-07-07T08:53:45.931Z,21.37
2018-07-07T08:54:45.928Z,21.28
2018-07-07T08:55:45.906Z,21.19
2018-07-07T08:56:45.895Z,21.22
2018-07-07T08:57:45.881Z,21.16
2018-07-07T08:58:45.876Z,21.09
2018-07-07T08:59:45.853Z,21.12
2018-07-07T09:00:45.843Z,21.14
2018-07-07T09:01:45.845Z,21.16
2018-07-07T09:02:45.822Z,21.34
2018-07-07T09:03:45.805Z,21.53
2018-07-07T09:04:45.792Z,21.56
2018-07-07T09:05:45.777Z,21.71
2018-07-07T09:06:45.768Z,21.79
2018-07-07T09:07:45.776Z,21.90
2018-07-07T09:08:45.740Z,21.98
2018-07-07T09:09:45.732Z,22.02
2018-07-07T09:10:45.719Z,22.09
2018-07-07T09:11:45.705Z,22.03
2018-07-07T09:12:45.704Z,22.03
2018-07-07T09:13:45.685Z,22.02
2018-07-07T09:14:45.673Z,22.05
2018-07-07T09:15:45.662Z,22.21
2018-07-07T09:16:45.655Z,22.31
2018-07-07T09:17:45.639Z,22.42
2018-07-07T09:18:45.627Z,22.37
2018-07-07T09:19:45.607Z,22.27
2018-07-07T09:20:45.597Z,22.12
2018-07-07T09:21:45.591Z,22.07
2018-07-07T09:22:45.600Z,21.74
2018-07-07T09:23:45.559Z,21.79
2018-07-07T09:24:45.550Z,21.90
2018-07-07T09:25:45.534Z,21.82
2018-07-07T09:26:45.521Z,21.79
2018-07-07T09:27:45.505Z,22.02
2018-07-07T09:28:45.497Z,22.05
2018-07-07T09:29:45.482Z,22.06
2018-07-07T09:30:45.522Z,21.91
2018-07-07T09:31:45.464Z,21.94
2018-07-07T09:32:45.448Z,21.88
2018-07-07T09:33:45.437Z,22.09
2018-07-07T09:34:45.435Z,22.25
2018-07-07T09:35:45.409Z,22.39
2018-07-07T09:36:45.396Z,22.25
2018-07-07T09:37:45.386Z,22.37
2018-07-07T09:38:45.382Z,22.00
2018-07-07T09:39:45.362Z,21.74
2018-07-07T09:40:45.352Z,21.91
2018-07-07T09:41:45.348Z,22.07
2018-07-07T09:42:45.332Z,22.02
2018-07-07T09:43:45.323Z,21.96
2018-07-07T09:44:45.300Z,22.27
2018-07-07T09:45:45.288Z,22.39
2018-07-07T09:46:45.278Z,22.31
2018-07-07T09:47:45.262Z,22.37
2018-07-07T09:48:45.253Z,22.37
2018-07-07T09:49:45.239Z,22.39
2018-07-07T09:50:45.227Z,22.37
2018-07-07T09:51:45.210Z,22.42
2018-07-07T09:52:45.204Z,22.37
2018-07-07T09:53:45.196Z,22.49
2018-07-07T09:54:45.175Z,22.61
2018-07-07T09:55:45.168Z,22.64
2018-07-07T09:56:45.164Z,22.70
2018-07-07T09:57:45.139Z,22.77
2018-07-07T09:58:45.125Z,22.72
2018-07-07T09:59:45.114Z,22.45
2018-07-07T10:00:45.107Z,22.73
2018-07-07T10:01:45.132Z,22.79
2018-07-07T10:02:45.094Z,22.90
2018-07-07T10:03:45.072Z,22.98
2018-07-07T10:04:45.063Z,23.10
2018-07-07T10:05:45.116Z,23.04
2018-07-07T10:06:45.050Z,23.01
2018-07-07T10:07:45.098Z,22.90
2018-07-07T10:08:45.010Z,22.92
2018-07-07T10:09:44.996Z,22.77
2018-07-07T10:10:44.985Z,22.61
2018-07-07T10:11:44.975Z,22.72
2018-07-07T10:12:44.965Z,22.88
2018-07-07T10:13:44.945Z,22.80
2018-07-07T10:14:44.938Z,22.94
2018-07-07T10:15:44.922Z,22.88
2018-07-07T10:16:44.925Z,23.09
2018-07-07T10:17:44.904Z,23.17
2018-07-07T10:18:44.893Z,23.36
2018-07-07T10:19:44.879Z,23.36
2018-07-07T10:20:44.869Z,23.27
2018-07-07T10:21:44.909Z,23.42
2018-07-07T10:22:44.841Z,23.55
2018-07-07T10:23:44.830Z,23.58
2018-07-07T10:24:44.823Z,23.66
2018-07-07T10:25:44.810Z,23.61
2018-07-07T10:26:44.794Z,23.51
2018-07-07T10:27:44.784Z,23.39
2018-07-07T10:28:44.768Z,23.15
2018-07-07T10:29:44.762Z,23.05
2018-07-07T10:30:44.751Z,22.98
2018-07-07T10:31:44.732Z,22.86
2018-07-07T10:32:44.722Z,23.15
2018-07-07T10:33:44.723Z,23.38
2018-07-07T10:34:44.695Z,23.23
2018-07-07T10:35:44.685Z,23.22
2018-07-07T10:36:44.677Z,23.22
2018-07-07T10:37:44.736Z,23.31
2018-07-07T10:38:44.648Z,23.51
2018-07-07T10:39:44.643Z,23.72
2018-07-07T10:40:44.640Z,23.93
2018-07-07T10:41:44.620Z,23.94
2018-07-07T10:42:44.604Z,23.91
2018-07-07T10:43:44.594Z,23.97
2018-07-07T10:44:44.628Z,23.66
2018-07-07T10:45:44.642Z,23.63
2018-07-07T10:46:44.562Z,23.60
2018-07-07T10:47:44.556Z,23.66
2018-07-07T10:48:44.538Z,23.70
2018-07-07T10:49:44.533Z,23.78
2018-07-07T10:50:44.513Z,23.93
2018-07-07T10:51:44.508Z,23.94
2018-07-07T10:52:44.489Z,23.93
2018-07-07T10:53:44.477Z,23.91
2018-07-07T10:54:44.465Z,23.88
2018-07-07T10:55:44.453Z,24.00
2018-07-07T10:56:44.445Z,24.05
2018-07-07T10:57:44.438Z,24.03
2018-07-07T10:58:44.433Z,24.08
2018-07-07T10:59:44.414Z,24.00
2018-07-07T11:00:44.399Z,24.28
2018-07-07T11:01:44.389Z,24.31
2018-07-07T11:02:44.376Z,24.52
2018-07-07T11:03:44.366Z,24.58
2018-07-07T11:04:44.358Z,24.25
2018-07-07T11:05:44.346Z,24.28
2018-07-07T11:06:44.331Z,24.05
2018-07-07T11:07:44.318Z,23.94
2018-07-07T11:08:44.310Z,23.97
2018-07-07T11:09:44.296Z,23.98
2018-07-07T11:10:44.287Z,24.21
2018-07-07T11:11:44.299Z,24.27
2018-07-07T11:12:44.262Z,24.35
2018-07-07T11:13:44.262Z,24.47
2018-07-07T11:14:44.259Z,24.34
2018-07-07T11:15:44.231Z,24.39
2018-07-07T11:16:44.225Z,24.52
2018-07-07T11:17:44.336Z,24.25
2018-07-07T11:18:44.201Z,23.97
2018-07-07T11:19:44.184Z,23.78
2018-07-07T11:20:44.183Z,23.76
2018-07-07T11:21:44.166Z,23.83
2018-07-07T11:22:44.168Z,23.84
2018-07-07T11:23:44.146Z,23.84
2018-07-07T11:24:44.133Z,23.90
2018-07-07T11:25:44.126Z,23.95
2018-07-07T11:26:44.110Z,24.02
2018-07-07T11:27:44.096Z,24.35
2018-07-07T11:28:44.085Z,24.35
2018-07-07T11:29:44.129Z,24.25
2018-07-07T11:30:44.063Z,24.37
2018-07-07T11:31:44.061Z,24.39
2018-07-07T11:32:44.041Z,24.45
2018-07-07T11:33:44.034Z,24.39
2018-07-07T11:34:44.020Z,24.09
2018-07-07T11:35:44.013Z,24.02
2018-07-07T11:36:44.250Z,24.30
2018-07-07T11:37:43.988Z,24.45
2018-07-07T11:38:43.996Z,24.30
2018-07-07T11:39:43.965Z,24.58
2018-07-07T11:40:43.955Z,24.62
2018-07-07T11:41:43.941Z,24.39
2018-07-07T11:42:43.937Z,24.47
2018-07-07T11:43:43.917Z,24.34
2018-07-07T11:44:43.908Z,24.53
2018-07-07T11:45:43.904Z,24.42
2018-07-07T11:46:43.888Z,24.40
2018-07-07T11:47:43.889Z,24.34
2018-07-07T11:48:43.872Z,24.24
2018-07-07T11:49:43.853Z,24.13
2018-07-07T11:50:43.842Z,24.00
2018-07-07T11:51:43.829Z,24.00
2018-07-07T11:52:43.821Z,23.91
2018-07-07T11:53:43.810Z,23.90
2018-07-07T11:54:43.796Z,23.88
2018-07-07T11:55:43.792Z,24.12
2018-07-07T11:56:43.775Z,24.42
2018-07-07T11:57:43.824Z,24.45
2018-07-07T11:58:43.760Z,24.47
2018-07-07T11:59:43.742Z,24.55
2018-07-07T12:00:43.738Z,24.49
2018-07-07T12:01:43.719Z,24.71
2018-07-07T12:02:43.710Z,24.50
2018-07-07T12:03:43.698Z,24.83
2018-07-07T12:04:43.862Z,24.77
2018-07-07T12:05:43.676Z,24.90
2018-07-07T12:06:43.666Z,24.80
2018-07-07T12:07:43.655Z,24.52
2018-07-07T12:08:43.656Z,24.25
2018-07-07T12:09:43.635Z,24.31
2018-07-07T12:10:43.622Z,24.30
2018-07-07T12:11:43.685Z,24.53
2018-07-07T12:12:43.600Z,24.77
2018-07-07T12:13:43.677Z,24.65
2018-07-07T12:14:43.578Z,24.69
2018-07-07T12:15:43.578Z,24.84
2018-07-07T12:16:43.554Z,24.71
2018-07-07T12:17:43.543Z,24.78
2018-07-07T12:18:43.545Z,24.69
2018-07-07T12:19:43.529Z,24.55
2018-07-07T12:20:43.513Z,24.91
2018-07-07T12:21:43.506Z,24.98
2018-07-07T12:22:43.492Z,24.99
2018-07-07T12:23:43.476Z,24.98
2018-07-07T12:24:43.531Z,24.93
2018-07-07T12:25:43.456Z,25.00
2018-07-07T12:26:43.447Z,25.03
2018-07-07T12:27:43.436Z,25.00
2018-07-07T12:28:43.423Z,24.81
2018-07-07T12:29:43.431Z,24.96
2018-07-07T12:30:43.403Z,24.77
2018-07-07T12:31:43.398Z,24.73
2018-07-07T12:32:43.377Z,24.78
2018-07-07T12:33:43.372Z,24.93
2018-07-07T12:34:43.366Z,25.08
2018-07-07T12:35:43.346Z,25.00
2018-07-07T12:36:43.452Z,24.73
2018-07-07T12:37:43.422Z,24.68
2018-07-07T12:38:43.338Z,24.73
2018-07-07T12:39:43.303Z,24.85
2018-07-07T12:40:43.395Z,25.15
2018-07-07T12:41:43.294Z,25.28
2018-07-07T12:42:43.271Z,24.90
2018-07-07T12:43:43.262Z,24.91
2018-07-07T12:44:43.304Z,25.00
2018-07-07T12:45:43.241Z,25.18
2018-07-07T12:46:43.231Z,25.30
2018-07-07T12:47:43.226Z,25.17
2018-07-07T12:48:43.207Z,25.21
2018-07-07T12:49:43.197Z,24.90
2018-07-07T12:50:43.187Z,24.80
2018-07-07T12:51:43.178Z,24.93
2018-07-07T12:52:43.171Z,24.91